sensor_id;sensor_type;location;lat;lon;timestamp;P1;durP1;ratioP1;P2;durP2;ratioP2
18405;SDS011;9329;48.720;9.588;2022-07-06T00:05:58;5.70;;;3.63;;
18405;SDS011;9329;48.720;9.588;2022-07-06T00:08:50;8.50;;;3.60;;
18405;SDS011;9329;48.720;9.588;2022-07-06T00:11:19;6.18;;;3.30;;
18405;SDS011;9329;48.720;9.588;2022-07-06T00:13:46;4.17;;;3.13;;
18405;SDS011;9329;48.720;9.588;2022-07-06T00:16:21;7.85;;;3.30;;
18405;SDS011;9329;48.720;9.588;2022-07-06T00:19:01;6.15;;;3.25;;
18405;SDS011;9329;48.720;9.588;2022-07-06T00:21:29;5.28;;;3.00;;
18405;SDS011;9329;48.720;9.588;2022-07-06T00:24:02;6.93;;;3.30;;
18405;SDS011;9329;48.720;9.588;2022-07-06T00:26:46;7.40;;;3.33;;
18405;SDS011;9329;48.720;9.588;2022-07-06T00:29:14;5.65;;;3.20;;
18405;SDS011;9329;48.720;9.588;2022-07-06T00:31:48;5.85;;;3.25;;
18405;SDS011;9329;48.720;9.588;2022-07-06T00:34:20;4.73;;;3.30;;
18405;SDS011;9329;48.720;9.588;2022-07-06T00:36:47;5.47;;;3.30;;
18405;SDS011;9329;48.720;9.588;2022-07-06T00:39:19;5.97;;;3.07;;
18405;SDS011;9329;48.720;9.588;2022-07-06T00:41:55;5.47;;;3.22;;
18405;SDS011;9329;48.720;9.588;2022-07-06T00:44:28;6.38;;;3.30;;
18405;SDS011;9329;48.720;9.588;2022-07-06T00:47:00;5.20;;;3.20;;
18405;SDS011;9329;48.720;9.588;2022-07-06T00:49:32;4.97;;;3.40;;
18405;SDS011;9329;48.720;9.588;2022-07-06T00:52:17;5.93;;;3.60;;
18405;SDS011;9329;48.720;9.588;2022-07-06T00:54:49;6.10;;;3.50;;
18405;SDS011;9329;48.720;9.588;2022-07-06T00:57:20;5.25;;;3.92;;
18405;SDS011;9329;48.720;9.588;2022-07-06T00:59:57;6.05;;;3.78;;
18405;SDS011;9329;48.720;9.588;2022-07-06T01:02:26;6.80;;;4.00;;
18405;SDS011;9329;48.720;9.588;2022-07-06T01:05:00;6.75;;;3.65;;
18405;SDS011;9329;48.720;9.588;2022-07-06T01:07:30;6.00;;;3.78;;
18405;SDS011;9329;48.720;9.588;2022-07-06T01:09:59;5.20;;;4.10;;
18405;SDS011;9329;48.720;9.588;2022-07-06T01:12:33;7.07;;;3.87;;
18405;SDS011;9329;48.720;9.588;2022-07-06T01:15:03;5.40;;;4.20;;
18405;SDS011;9329;48.720;9.588;2022-07-06T01:17:34;8.63;;;4.13;;
18405;SDS011;9329;48.720;9.588;2022-07-06T01:20:09;5.87;;;4.27;;
18405;SDS011;9329;48.720;9.588;2022-07-06T01:22:47;4.93;;;4.13;;
18405;SDS011;9329;48.720;9.588;2022-07-06T01:25:28;5.67;;;4.40;;
18405;SDS011;9329;48.720;9.588;2022-07-06T01:27:56;5.40;;;4.57;;
18405;SDS011;9329;48.720;9.588;2022-07-06T01:30:30;8.90;;;4.87;;
18405;SDS011;9329;48.720;9.588;2022-07-06T01:33:02;6.15;;;4.60;;
18405;SDS011;9329;48.720;9.588;2022-07-06T01:35:33;6.32;;;4.85;;
18405;SDS011;9329;48.720;9.588;2022-07-06T01:38:06;9.37;;;4.43;;
18405;SDS011;9329;48.720;9.588;2022-07-06T01:40:35;7.53;;;4.73;;
18405;SDS011;9329;48.720;9.588;2022-07-06T01:43:03;6.57;;;4.83;;
18405;SDS011;9329;48.720;9.588;2022-07-06T01:45:35;7.57;;;5.10;;
18405;SDS011;9329;48.720;9.588;2022-07-06T01:48:06;6.50;;;4.40;;
18405;SDS011;9329;48.720;9.588;2022-07-06T01:50:37;7.67;;;4.93;;
18405;SDS011;9329;48.720;9.588;2022-07-06T01:53:08;5.20;;;4.67;;
18405;SDS011;9329;48.720;9.588;2022-07-06T01:55:39;5.53;;;4.77;;
18405;SDS011;9329;48.720;9.588;2022-07-06T01:58:07;7.43;;;4.53;;
18405;SDS011;9329;48.720;9.588;2022-07-06T02:00:46;5.20;;;4.70;;
18405;SDS011;9329;48.720;9.588;2022-07-06T02:03:21;6.83;;;5.17;;
18405;SDS011;9329;48.720;9.588;2022-07-06T02:08:47;14.57;;;5.10;;
18405;SDS011;9329;48.720;9.588;2022-07-06T02:11:17;6.53;;;4.70;;
18405;SDS011;9329;48.720;9.588;2022-07-06T02:13:50;6.70;;;4.83;;
18405;SDS011;9329;48.720;9.588;2022-07-06T02:16:23;8.27;;;4.97;;
18405;SDS011;9329;48.720;9.588;2022-07-06T02:18:51;7.77;;;4.80;;
18405;SDS011;9329;48.720;9.588;2022-07-06T02:21:20;5.97;;;5.37;;
18405;SDS011;9329;48.720;9.588;2022-07-06T02:23:51;8.70;;;4.50;;
18405;SDS011;9329;48.720;9.588;2022-07-06T02:26:20;4.93;;;4.43;;
18405;SDS011;9329;48.720;9.588;2022-07-06T02:28:50;7.55;;;4.70;;
18405;SDS011;9329;48.720;9.588;2022-07-06T02:31:24;7.07;;;4.30;;
18405;SDS011;9329;48.720;9.588;2022-07-06T02:33:53;7.70;;;4.20;;
18405;SDS011;9329;48.720;9.588;2022-07-06T02:36:24;5.75;;;4.43;;
18405;SDS011;9329;48.720;9.588;2022-07-06T02:38:55;7.63;;;4.53;;
18405;SDS011;9329;48.720;9.588;2022-07-06T02:41:24;6.85;;;4.78;;
18405;SDS011;9329;48.720;9.588;2022-07-06T02:43:59;9.30;;;5.17;;
18405;SDS011;9329;48.720;9.588;2022-07-06T02:46:28;6.32;;;4.75;;
18405;SDS011;9329;48.720;9.588;2022-07-06T02:48:58;6.25;;;4.25;;
18405;SDS011;9329;48.720;9.588;2022-07-06T02:51:37;7.45;;;3.95;;
18405;SDS011;9329;48.720;9.588;2022-07-06T02:54:06;5.78;;;4.15;;
18405;SDS011;9329;48.720;9.588;2022-07-06T02:56:34;6.20;;;4.10;;
18405;SDS011;9329;48.720;9.588;2022-07-06T02:59:03;6.97;;;4.33;;
18405;SDS011;9329;48.720;9.588;2022-07-06T03:01:35;7.80;;;4.43;;
18405;SDS011;9329;48.720;9.588;2022-07-06T03:04:15;6.78;;;4.30;;
18405;SDS011;9329;48.720;9.588;2022-07-06T03:06:45;7.22;;;4.70;;
18405;SDS011;9329;48.720;9.588;2022-07-06T03:09:14;5.47;;;4.68;;
18405;SDS011;9329;48.720;9.588;2022-07-06T03:11:42;6.03;;;5.00;;
18405;SDS011;9329;48.720;9.588;2022-07-06T03:14:11;8.43;;;4.85;;
18405;SDS011;9329;48.720;9.588;2022-07-06T03:16:47;8.73;;;5.72;;
18405;SDS011;9329;48.720;9.588;2022-07-06T03:19:19;8.18;;;5.53;;
18405;SDS011;9329;48.720;9.588;2022-07-06T03:21:49;8.52;;;5.38;;
18405;SDS011;9329;48.720;9.588;2022-07-06T03:24:18;7.72;;;4.97;;
18405;SDS011;9329;48.720;9.588;2022-07-06T03:26:47;6.85;;;4.57;;
18405;SDS011;9329;48.720;9.588;2022-07-06T03:29:15;5.93;;;4.53;;
18405;SDS011;9329;48.720;9.588;2022-07-06T03:31:43;6.20;;;4.72;;
18405;SDS011;9329;48.720;9.588;2022-07-06T03:34:11;5.68;;;4.03;;
18405;SDS011;9329;48.720;9.588;2022-07-06T03:36:40;5.22;;;3.92;;
18405;SDS011;9329;48.720;9.588;2022-07-06T03:39:14;7.65;;;4.22;;
18405;SDS011;9329;48.720;9.588;2022-07-06T03:41:48;6.22;;;4.10;;
18405;SDS011;9329;48.720;9.588;2022-07-06T03:44:18;9.77;;;4.22;;
18405;SDS011;9329;48.720;9.588;2022-07-06T03:46:52;6.55;;;4.30;;
18405;SDS011;9329;48.720;9.588;2022-07-06T03:49:22;6.68;;;4.20;;
18405;SDS011;9329;48.720;9.588;2022-07-06T03:51:55;7.13;;;4.30;;
18405;SDS011;9329;48.720;9.588;2022-07-06T03:57:16;8.93;;;5.20;;
18405;SDS011;9329;48.720;9.588;2022-07-06T03:59:47;9.03;;;5.40;;
18405;SDS011;9329;48.720;9.588;2022-07-06T04:02:16;5.80;;;5.18;;
18405;SDS011;9329;48.720;9.588;2022-07-06T04:04:48;7.63;;;4.80;;
18405;SDS011;9329;48.720;9.588;2022-07-06T04:07:16;6.97;;;4.93;;
18405;SDS011;9329;48.720;9.588;2022-07-06T04:09:52;6.07;;;4.97;;
18405;SDS011;9329;48.720;9.588;2022-07-06T04:15:25;10.85;;;5.22;;
18405;SDS011;9329;48.720;9.588;2022-07-06T04:17:53;6.10;;;5.03;;
18405;SDS011;9329;48.720;9.588;2022-07-06T04:20:26;6.07;;;5.00;;
18405;SDS011;9329;48.720;9.588;2022-07-06T04:22:57;7.73;;;5.53;;
18405;SDS011;9329;48.720;9.588;2022-07-06T04:25:28;9.73;;;5.50;;
18405;SDS011;9329;48.720;9.588;2022-07-06T04:27:58;6.80;;;5.18;;
18405;SDS011;9329;48.720;9.588;2022-07-06T04:30:40;6.33;;;5.03;;
18405;SDS011;9329;48.720;9.588;2022-07-06T04:33:16;7.88;;;5.35;;
18405;SDS011;9329;48.720;9.588;2022-07-06T04:35:53;8.23;;;4.82;;
18405;SDS011;9329;48.720;9.588;2022-07-06T04:38:35;8.48;;;5.00;;
18405;SDS011;9329;48.720;9.588;2022-07-06T04:41:07;7.53;;;4.90;;
18405;SDS011;9329;48.720;9.588;2022-07-06T04:43:38;7.70;;;5.10;;
18405;SDS011;9329;48.720;9.588;2022-07-06T04:46:10;5.70;;;4.50;;
18405;SDS011;9329;48.720;9.588;2022-07-06T04:48:45;7.28;;;5.10;;
18405;SDS011;9329;48.720;9.588;2022-07-06T04:51:18;8.02;;;5.10;;
18405;SDS011;9329;48.720;9.588;2022-07-06T04:53:52;7.50;;;4.90;;
18405;SDS011;9329;48.720;9.588;2022-07-06T04:56:24;7.55;;;5.03;;
18405;SDS011;9329;48.720;9.588;2022-07-06T04:58:52;7.03;;;5.07;;
18405;SDS011;9329;48.720;9.588;2022-07-06T05:01:21;8.80;;;5.32;;
18405;SDS011;9329;48.720;9.588;2022-07-06T05:03:48;7.50;;;4.82;;
18405;SDS011;9329;48.720;9.588;2022-07-06T05:06:19;8.17;;;4.73;;
18405;SDS011;9329;48.720;9.588;2022-07-06T05:08:46;7.25;;;4.32;;
18405;SDS011;9329;48.720;9.588;2022-07-06T05:11:14;6.90;;;4.32;;
18405;SDS011;9329;48.720;9.588;2022-07-06T05:13:43;6.27;;;4.07;;
18405;SDS011;9329;48.720;9.588;2022-07-06T05:16:10;6.72;;;4.28;;
18405;SDS011;9329;48.720;9.588;2022-07-06T05:18:37;7.85;;;4.18;;
18405;SDS011;9329;48.720;9.588;2022-07-06T05:21:05;7.93;;;4.00;;
18405;SDS011;9329;48.720;9.588;2022-07-06T05:23:32;8.15;;;4.10;;
18405;SDS011;9329;48.720;9.588;2022-07-06T05:26:00;6.97;;;4.38;;
18405;SDS011;9329;48.720;9.588;2022-07-06T05:28:29;6.23;;;4.00;;
18405;SDS011;9329;48.720;9.588;2022-07-06T05:30:58;6.38;;;3.88;;
18405;SDS011;9329;48.720;9.588;2022-07-06T05:33:27;7.45;;;4.20;;
18405;SDS011;9329;48.720;9.588;2022-07-06T05:35:54;6.30;;;4.03;;
18405;SDS011;9329;48.720;9.588;2022-07-06T05:38:25;6.93;;;3.90;;
18405;SDS011;9329;48.720;9.588;2022-07-06T05:40:53;9.50;;;3.90;;
18405;SDS011;9329;48.720;9.588;2022-07-06T05:43:20;6.57;;;4.05;;
18405;SDS011;9329;48.720;9.588;2022-07-06T05:45:48;6.32;;;3.92;;
18405;SDS011;9329;48.720;9.588;2022-07-06T05:48:20;8.80;;;3.83;;
18405;SDS011;9329;48.720;9.588;2022-07-06T05:51:05;7.70;;;4.00;;
18405;SDS011;9329;48.720;9.588;2022-07-06T05:53:32;8.10;;;4.03;;
18405;SDS011;9329;48.720;9.588;2022-07-06T05:55:59;8.50;;;4.00;;
18405;SDS011;9329;48.720;9.588;2022-07-06T05:58:29;8.43;;;3.95;;
18405;SDS011;9329;48.720;9.588;2022-07-06T06:00:58;7.85;;;3.78;;
18405;SDS011;9329;48.720;9.588;2022-07-06T06:03:26;9.13;;;4.05;;
18405;SDS011;9329;48.720;9.588;2022-07-06T06:05:54;6.13;;;3.80;;
18405;SDS011;9329;48.720;9.588;2022-07-06T06:08:23;7.32;;;3.95;;
18405;SDS011;9329;48.720;9.588;2022-07-06T06:10:51;7.95;;;3.95;;
18405;SDS011;9329;48.720;9.588;2022-07-06T06:13:20;8.38;;;3.55;;
18405;SDS011;9329;48.720;9.588;2022-07-06T06:15:48;7.90;;;4.30;;
18405;SDS011;9329;48.720;9.588;2022-07-06T06:18:15;7.97;;;4.00;;
18405;SDS011;9329;48.720;9.588;2022-07-06T06:20:45;9.65;;;4.00;;
18405;SDS011;9329;48.720;9.588;2022-07-06T06:23:12;6.32;;;3.70;;
18405;SDS011;9329;48.720;9.588;2022-07-06T06:25:40;5.53;;;3.35;;
18405;SDS011;9329;48.720;9.588;2022-07-06T06:28:08;7.05;;;3.53;;
18405;SDS011;9329;48.720;9.588;2022-07-06T06:30:36;6.07;;;3.60;;
18405;SDS011;9329;48.720;9.588;2022-07-06T06:33:08;7.50;;;3.50;;
18405;SDS011;9329;48.720;9.588;2022-07-06T06:35:37;6.82;;;3.50;;
18405;SDS011;9329;48.720;9.588;2022-07-06T06:38:06;6.20;;;3.40;;
18405;SDS011;9329;48.720;9.588;2022-07-06T06:40:33;8.73;;;3.67;;
18405;SDS011;9329;48.720;9.588;2022-07-06T06:43:00;4.72;;;2.97;;
18405;SDS011;9329;48.720;9.588;2022-07-06T06:45:29;6.50;;;3.10;;
18405;SDS011;9329;48.720;9.588;2022-07-06T06:47:56;7.43;;;3.40;;
18405;SDS011;9329;48.720;9.588;2022-07-06T06:50:23;6.53;;;3.60;;
18405;SDS011;9329;48.720;9.588;2022-07-06T06:52:51;7.07;;;3.10;;
18405;SDS011;9329;48.720;9.588;2022-07-06T06:55:19;6.82;;;3.53;;
18405;SDS011;9329;48.720;9.588;2022-07-06T06:57:46;9.27;;;3.30;;
18405;SDS011;9329;48.720;9.588;2022-07-06T07:00:13;6.00;;;3.10;;
18405;SDS011;9329;48.720;9.588;2022-07-06T07:02:41;6.45;;;3.15;;
18405;SDS011;9329;48.720;9.588;2022-07-06T07:05:08;5.88;;;3.50;;
18405;SDS011;9329;48.720;9.588;2022-07-06T07:07:35;5.68;;;3.20;;
18405;SDS011;9329;48.720;9.588;2022-07-06T07:10:03;9.43;;;3.30;;
18405;SDS011;9329;48.720;9.588;2022-07-06T07:12:32;10.00;;;3.25;;
18405;SDS011;9329;48.720;9.588;2022-07-06T07:15:00;6.22;;;2.97;;
18405;SDS011;9329;48.720;9.588;2022-07-06T07:17:27;4.80;;;2.90;;
18405;SDS011;9329;48.720;9.588;2022-07-06T07:19:54;7.23;;;3.30;;
18405;SDS011;9329;48.720;9.588;2022-07-06T07:22:22;6.70;;;3.40;;
18405;SDS011;9329;48.720;9.588;2022-07-06T07:24:50;8.25;;;3.40;;
18405;SDS011;9329;48.720;9.588;2022-07-06T07:27:17;6.55;;;2.95;;
18405;SDS011;9329;48.720;9.588;2022-07-06T07:29:46;5.72;;;3.20;;
18405;SDS011;9329;48.720;9.588;2022-07-06T07:32:12;5.75;;;3.42;;
18405;SDS011;9329;48.720;9.588;2022-07-06T07:34:39;6.28;;;3.28;;
18405;SDS011;9329;48.720;9.588;2022-07-06T07:37:06;9.27;;;3.22;;
18405;SDS011;9329;48.720;9.588;2022-07-06T07:39:33;6.80;;;3.03;;
18405;SDS011;9329;48.720;9.588;2022-07-06T07:42:01;7.45;;;3.13;;
18405;SDS011;9329;48.720;9.588;2022-07-06T07:44:28;6.13;;;3.05;;
18405;SDS011;9329;48.720;9.588;2022-07-06T07:46:56;6.68;;;3.08;;
18405;SDS011;9329;48.720;9.588;2022-07-06T07:49:23;5.57;;;2.88;;
18405;SDS011;9329;48.720;9.588;2022-07-06T07:51:50;9.38;;;3.10;;
18405;SDS011;9329;48.720;9.588;2022-07-06T07:54:17;6.00;;;3.17;;
18405;SDS011;9329;48.720;9.588;2022-07-06T07:56:44;6.53;;;3.25;;
18405;SDS011;9329;48.720;9.588;2022-07-06T07:59:11;9.25;;;3.22;;
18405;SDS011;9329;48.720;9.588;2022-07-06T08:01:41;5.80;;;2.88;;
18405;SDS011;9329;48.720;9.588;2022-07-06T08:04:09;8.75;;;3.17;;
18405;SDS011;9329;48.720;9.588;2022-07-06T08:06:36;6.80;;;3.20;;
18405;SDS011;9329;48.720;9.588;2022-07-06T08:09:03;7.72;;;2.97;;
18405;SDS011;9329;48.720;9.588;2022-07-06T08:11:32;7.40;;;2.95;;
18405;SDS011;9329;48.720;9.588;2022-07-06T08:13:59;7.47;;;3.13;;
18405;SDS011;9329;48.720;9.588;2022-07-06T08:16:26;5.78;;;3.10;;
18405;SDS011;9329;48.720;9.588;2022-07-06T08:18:54;7.10;;;2.95;;
18405;SDS011;9329;48.720;9.588;2022-07-06T08:21:22;6.00;;;2.92;;
18405;SDS011;9329;48.720;9.588;2022-07-06T08:23:50;5.82;;;3.10;;
18405;SDS011;9329;48.720;9.588;2022-07-06T08:26:17;4.70;;;3.20;;
18405;SDS011;9329;48.720;9.588;2022-07-06T08:28:45;6.50;;;3.30;;
18405;SDS011;9329;48.720;9.588;2022-07-06T08:31:13;6.87;;;3.17;;
18405;SDS011;9329;48.720;9.588;2022-07-06T08:33:40;5.00;;;3.20;;
18405;SDS011;9329;48.720;9.588;2022-07-06T08:36:07;6.17;;;3.33;;
18405;SDS011;9329;48.720;9.588;2022-07-06T08:38:35;8.50;;;3.20;;
18405;SDS011;9329;48.720;9.588;2022-07-06T08:41:02;6.07;;;3.10;;
18405;SDS011;9329;48.720;9.588;2022-07-06T08:43:33;8.47;;;3.90;;
18405;SDS011;9329;48.720;9.588;2022-07-06T08:46:01;7.53;;;3.20;;
18405;SDS011;9329;48.720;9.588;2022-07-06T08:48:29;7.83;;;3.23;;
18405;SDS011;9329;48.720;9.588;2022-07-06T08:51:02;6.80;;;3.20;;
18405;SDS011;9329;48.720;9.588;2022-07-06T08:53:30;4.90;;;3.00;;
18405;SDS011;9329;48.720;9.588;2022-07-06T08:55:58;6.07;;;3.13;;
18405;SDS011;9329;48.720;9.588;2022-07-06T08:58:26;8.27;;;2.90;;
18405;SDS011;9329;48.720;9.588;2022-07-06T09:00:54;8.03;;;2.97;;
18405;SDS011;9329;48.720;9.588;2022-07-06T09:03:21;3.90;;;3.17;;
18405;SDS011;9329;48.720;9.588;2022-07-06T09:05:49;4.83;;;3.27;;
18405;SDS011;9329;48.720;9.588;2022-07-06T09:08:18;7.43;;;3.10;;
18405;SDS011;9329;48.720;9.588;2022-07-06T09:10:47;4.17;;;3.10;;
18405;SDS011;9329;48.720;9.588;2022-07-06T09:13:16;6.07;;;3.00;;
18405;SDS011;9329;48.720;9.588;2022-07-06T09:15:43;7.93;;;3.10;;
18405;SDS011;9329;48.720;9.588;2022-07-06T09:18:10;5.33;;;2.80;;
18405;SDS011;9329;48.720;9.588;2022-07-06T09:20:37;8.07;;;2.80;;
18405;SDS011;9329;48.720;9.588;2022-07-06T09:23:06;4.55;;;3.00;;
18405;SDS011;9329;48.720;9.588;2022-07-06T09:25:33;6.53;;;2.72;;
18405;SDS011;9329;48.720;9.588;2022-07-06T09:28:02;5.85;;;2.80;;
18405;SDS011;9329;48.720;9.588;2022-07-06T09:30:34;6.47;;;2.70;;
18405;SDS011;9329;48.720;9.588;2022-07-06T09:33:05;4.07;;;2.60;;
18405;SDS011;9329;48.720;9.588;2022-07-06T09:35:36;5.57;;;2.35;;
18405;SDS011;9329;48.720;9.588;2022-07-06T09:38:04;4.90;;;2.60;;
18405;SDS011;9329;48.720;9.588;2022-07-06T09:40:32;4.20;;;2.42;;
18405;SDS011;9329;48.720;9.588;2022-07-06T09:43:07;6.05;;;2.53;;
18405;SDS011;9329;48.720;9.588;2022-07-06T09:45:40;6.97;;;2.88;;
18405;SDS011;9329;48.720;9.588;2022-07-06T09:48:09;6.15;;;2.75;;
18405;SDS011;9329;48.720;9.588;2022-07-06T09:50:38;3.05;;;2.40;;
18405;SDS011;9329;48.720;9.588;2022-07-06T09:53:06;4.05;;;2.38;;
18405;SDS011;9329;48.720;9.588;2022-07-06T09:55:33;5.25;;;2.60;;
18405;SDS011;9329;48.720;9.588;2022-07-06T09:58:00;5.95;;;2.47;;
18405;SDS011;9329;48.720;9.588;2022-07-06T10:00:28;5.00;;;2.40;;
18405;SDS011;9329;48.720;9.588;2022-07-06T10:02:57;4.53;;;2.50;;
18405;SDS011;9329;48.720;9.588;2022-07-06T10:05:24;5.35;;;2.40;;
18405;SDS011;9329;48.720;9.588;2022-07-06T10:07:55;6.43;;;2.30;;
18405;SDS011;9329;48.720;9.588;2022-07-06T10:10:24;5.05;;;2.30;;
18405;SDS011;9329;48.720;9.588;2022-07-06T10:12:51;4.57;;;2.30;;
18405;SDS011;9329;48.720;9.588;2022-07-06T10:15:21;4.80;;;2.60;;
18405;SDS011;9329;48.720;9.588;2022-07-06T10:17:49;4.10;;;2.20;;
18405;SDS011;9329;48.720;9.588;2022-07-06T10:20:19;5.05;;;2.20;;
18405;SDS011;9329;48.720;9.588;2022-07-06T10:22:47;6.30;;;2.30;;
18405;SDS011;9329;48.720;9.588;2022-07-06T10:25:15;6.50;;;2.45;;
18405;SDS011;9329;48.720;9.588;2022-07-06T10:27:43;3.97;;;2.35;;
18405;SDS011;9329;48.720;9.588;2022-07-06T10:30:12;5.60;;;2.50;;
18405;SDS011;9329;48.720;9.588;2022-07-06T10:32:40;6.28;;;2.40;;
18405;SDS011;9329;48.720;9.588;2022-07-06T10:35:09;5.03;;;2.63;;
18405;SDS011;9329;48.720;9.588;2022-07-06T10:37:38;5.85;;;2.22;;
18405;SDS011;9329;48.720;9.588;2022-07-06T10:40:15;6.35;;;2.08;;
18405;SDS011;9329;48.720;9.588;2022-07-06T10:43:02;5.22;;;2.33;;
18405;SDS011;9329;48.720;9.588;2022-07-06T10:48:19;4.78;;;2.20;;
18405;SDS011;9329;48.720;9.588;2022-07-06T10:50:51;5.82;;;2.10;;
18405;SDS011;9329;48.720;9.588;2022-07-06T10:53:24;7.00;;;2.15;;
18405;SDS011;9329;48.720;9.588;2022-07-06T10:55:52;7.07;;;2.27;;
18405;SDS011;9329;48.720;9.588;2022-07-06T10:58:36;3.42;;;2.20;;
18405;SDS011;9329;48.720;9.588;2022-07-06T11:01:05;6.18;;;2.53;;
18405;SDS011;9329;48.720;9.588;2022-07-06T11:03:34;6.70;;;2.63;;
18405;SDS011;9329;48.720;9.588;2022-07-06T11:06:05;5.10;;;2.50;;
18405;SDS011;9329;48.720;9.588;2022-07-06T11:08:44;8.30;;;2.40;;
18405;SDS011;9329;48.720;9.588;2022-07-06T11:11:13;6.32;;;2.28;;
18405;SDS011;9329;48.720;9.588;2022-07-06T11:13:43;6.83;;;2.27;;
18405;SDS011;9329;48.720;9.588;2022-07-06T11:16:15;4.47;;;2.20;;
18405;SDS011;9329;48.720;9.588;2022-07-06T11:18:45;7.70;;;2.30;;
18405;SDS011;9329;48.720;9.588;2022-07-06T11:21:14;4.85;;;2.30;;
18405;SDS011;9329;48.720;9.588;2022-07-06T11:23:44;5.85;;;2.40;;
18405;SDS011;9329;48.720;9.588;2022-07-06T11:26:12;6.35;;;2.40;;
18405;SDS011;9329;48.720;9.588;2022-07-06T11:28:40;5.07;;;2.40;;
18405;SDS011;9329;48.720;9.588;2022-07-06T11:31:07;6.40;;;2.35;;
18405;SDS011;9329;48.720;9.588;2022-07-06T11:33:34;3.88;;;2.20;;
18405;SDS011;9329;48.720;9.588;2022-07-06T11:36:14;6.30;;;2.13;;
18405;SDS011;9329;48.720;9.588;2022-07-06T11:38:42;5.43;;;2.10;;
18405;SDS011;9329;48.720;9.588;2022-07-06T11:41:11;4.03;;;2.00;;
18405;SDS011;9329;48.720;9.588;2022-07-06T11:43:40;4.97;;;2.00;;
18405;SDS011;9329;48.720;9.588;2022-07-06T11:46:20;8.63;;;2.50;;
18405;SDS011;9329;48.720;9.588;2022-07-06T11:48:48;5.17;;;2.17;;
18405;SDS011;9329;48.720;9.588;2022-07-06T11:51:16;4.68;;;2.10;;
18405;SDS011;9329;48.720;9.588;2022-07-06T11:53:45;5.50;;;2.30;;
18405;SDS011;9329;48.720;9.588;2022-07-06T11:56:14;4.20;;;2.53;;
18405;SDS011;9329;48.720;9.588;2022-07-06T11:58:44;4.88;;;2.20;;
18405;SDS011;9329;48.720;9.588;2022-07-06T12:01:12;7.38;;;2.20;;
18405;SDS011;9329;48.720;9.588;2022-07-06T12:03:40;4.57;;;1.90;;
18405;SDS011;9329;48.720;9.588;2022-07-06T12:06:12;4.80;;;1.83;;
18405;SDS011;9329;48.720;9.588;2022-07-06T12:08:42;5.10;;;2.00;;
18405;SDS011;9329;48.720;9.588;2022-07-06T12:11:17;4.35;;;1.88;;
18405;SDS011;9329;48.720;9.588;2022-07-06T12:13:49;4.33;;;2.07;;
18405;SDS011;9329;48.720;9.588;2022-07-06T12:16:17;3.97;;;1.83;;
18405;SDS011;9329;48.720;9.588;2022-07-06T12:18:47;5.30;;;1.70;;
18405;SDS011;9329;48.720;9.588;2022-07-06T12:21:15;3.97;;;1.70;;
18405;SDS011;9329;48.720;9.588;2022-07-06T12:23:46;5.30;;;1.88;;
18405;SDS011;9329;48.720;9.588;2022-07-06T12:26:18;3.97;;;1.52;;
18405;SDS011;9329;48.720;9.588;2022-07-06T12:28:46;5.90;;;1.70;;
18405;SDS011;9329;48.720;9.588;2022-07-06T12:31:31;5.75;;;2.00;;
18405;SDS011;9329;48.720;9.588;2022-07-06T12:33:59;6.13;;;1.80;;
18405;SDS011;9329;48.720;9.588;2022-07-06T12:36:27;6.85;;;1.75;;
18405;SDS011;9329;48.720;9.588;2022-07-06T12:38:54;4.57;;;1.90;;
18405;SDS011;9329;48.720;9.588;2022-07-06T12:41:29;4.18;;;1.80;;
18405;SDS011;9329;48.720;9.588;2022-07-06T12:44:07;5.65;;;1.88;;
18405;SDS011;9329;48.720;9.588;2022-07-06T12:46:36;4.32;;;1.73;;
18405;SDS011;9329;48.720;9.588;2022-07-06T12:49:14;5.68;;;1.80;;
18405;SDS011;9329;48.720;9.588;2022-07-06T12:51:53;4.90;;;1.63;;
18405;SDS011;9329;48.720;9.588;2022-07-06T12:54:22;3.28;;;1.70;;
18405;SDS011;9329;48.720;9.588;2022-07-06T12:56:58;3.58;;;1.67;;
18405;SDS011;9329;48.720;9.588;2022-07-06T12:59:31;4.13;;;1.70;;
18405;SDS011;9329;48.720;9.588;2022-07-06T13:01:59;5.83;;;1.77;;
18405;SDS011;9329;48.720;9.588;2022-07-06T13:04:27;3.85;;;1.95;;
18405;SDS011;9329;48.720;9.588;2022-07-06T13:06:55;4.37;;;2.00;;
18405;SDS011;9329;48.720;9.588;2022-07-06T13:09:25;5.87;;;2.20;;
18405;SDS011;9329;48.720;9.588;2022-07-06T13:11:52;5.63;;;1.98;;
18405;SDS011;9329;48.720;9.588;2022-07-06T13:14:20;6.03;;;2.00;;
18405;SDS011;9329;48.720;9.588;2022-07-06T13:16:48;5.32;;;1.90;;
18405;SDS011;9329;48.720;9.588;2022-07-06T13:19:15;7.45;;;2.20;;
18405;SDS011;9329;48.720;9.588;2022-07-06T13:21:42;4.75;;;1.95;;
18405;SDS011;9329;48.720;9.588;2022-07-06T13:24:11;7.40;;;2.10;;
18405;SDS011;9329;48.720;9.588;2022-07-06T13:26:38;6.45;;;2.15;;
18405;SDS011;9329;48.720;9.588;2022-07-06T13:29:06;6.50;;;2.20;;
18405;SDS011;9329;48.720;9.588;2022-07-06T13:31:37;6.00;;;2.30;;
18405;SDS011;9329;48.720;9.588;2022-07-06T13:34:05;7.97;;;2.55;;
18405;SDS011;9329;48.720;9.588;2022-07-06T13:36:33;5.28;;;2.53;;
18405;SDS011;9329;48.720;9.588;2022-07-06T13:39:01;6.70;;;2.30;;
18405;SDS011;9329;48.720;9.588;2022-07-06T13:41:28;6.32;;;2.33;;
18405;SDS011;9329;48.720;9.588;2022-07-06T13:43:55;6.55;;;2.30;;
18405;SDS011;9329;48.720;9.588;2022-07-06T13:46:22;4.97;;;2.20;;
18405;SDS011;9329;48.720;9.588;2022-07-06T13:48:50;6.88;;;2.30;;
18405;SDS011;9329;48.720;9.588;2022-07-06T13:51:17;5.00;;;2.38;;
18405;SDS011;9329;48.720;9.588;2022-07-06T13:53:44;5.78;;;2.10;;
18405;SDS011;9329;48.720;9.588;2022-07-06T13:56:12;4.40;;;1.98;;
18405;SDS011;9329;48.720;9.588;2022-07-06T13:58:39;6.80;;;2.13;;
18405;SDS011;9329;48.720;9.588;2022-07-06T14:01:06;6.15;;;2.15;;
18405;SDS011;9329;48.720;9.588;2022-07-06T14:03:33;7.97;;;2.40;;
18405;SDS011;9329;48.720;9.588;2022-07-06T14:06:05;6.75;;;2.13;;
18405;SDS011;9329;48.720;9.588;2022-07-06T14:08:33;5.70;;;2.00;;
18405;SDS011;9329;48.720;9.588;2022-07-06T14:11:00;5.65;;;2.95;;
18405;SDS011;9329;48.720;9.588;2022-07-06T14:13:28;7.80;;;2.40;;
18405;SDS011;9329;48.720;9.588;2022-07-06T14:15:55;4.95;;;2.10;;
18405;SDS011;9329;48.720;9.588;2022-07-06T14:18:23;4.30;;;1.83;;
18405;SDS011;9329;48.720;9.588;2022-07-06T14:20:50;6.15;;;1.90;;
18405;SDS011;9329;48.720;9.588;2022-07-06T14:23:19;6.85;;;2.35;;
18405;SDS011;9329;48.720;9.588;2022-07-06T14:25:47;6.30;;;2.00;;
18405;SDS011;9329;48.720;9.588;2022-07-06T14:28:15;9.55;;;2.80;;
18405;SDS011;9329;48.720;9.588;2022-07-06T14:30:43;7.30;;;2.40;;
18405;SDS011;9329;48.720;9.588;2022-07-06T14:33:12;3.95;;;1.80;;
18405;SDS011;9329;48.720;9.588;2022-07-06T14:35:41;7.78;;;2.50;;
18405;SDS011;9329;48.720;9.588;2022-07-06T14:38:09;8.57;;;3.60;;
18405;SDS011;9329;48.720;9.588;2022-07-06T14:40:38;8.25;;;4.90;;
18405;SDS011;9329;48.720;9.588;2022-07-06T14:43:05;7.97;;;4.78;;
18405;SDS011;9329;48.720;9.588;2022-07-06T14:45:32;7.20;;;3.28;;
18405;SDS011;9329;48.720;9.588;2022-07-06T14:47:59;6.72;;;2.65;;
18405;SDS011;9329;48.720;9.588;2022-07-06T14:50:27;6.72;;;2.47;;
18405;SDS011;9329;48.720;9.588;2022-07-06T14:52:54;7.55;;;2.42;;
18405;SDS011;9329;48.720;9.588;2022-07-06T14:55:22;5.15;;;2.28;;
18405;SDS011;9329;48.720;9.588;2022-07-06T14:57:50;7.38;;;2.00;;
18405;SDS011;9329;48.720;9.588;2022-07-06T15:00:17;7.25;;;2.08;;
18405;SDS011;9329;48.720;9.588;2022-07-06T15:02:45;9.13;;;2.00;;
18405;SDS011;9329;48.720;9.588;2022-07-06T15:05:12;6.18;;;1.75;;
18405;SDS011;9329;48.720;9.588;2022-07-06T15:07:39;5.78;;;2.00;;
18405;SDS011;9329;48.720;9.588;2022-07-06T15:10:07;6.00;;;2.13;;
18405;SDS011;9329;48.720;9.588;2022-07-06T15:12:35;7.53;;;2.58;;
18405;SDS011;9329;48.720;9.588;2022-07-06T15:15:04;6.75;;;1.80;;
18405;SDS011;9329;48.720;9.588;2022-07-06T15:17:32;6.07;;;2.10;;
18405;SDS011;9329;48.720;9.588;2022-07-06T15:19:59;4.55;;;1.90;;
18405;SDS011;9329;48.720;9.588;2022-07-06T15:22:26;6.93;;;2.22;;
18405;SDS011;9329;48.720;9.588;2022-07-06T15:24:53;6.22;;;2.10;;
18405;SDS011;9329;48.720;9.588;2022-07-06T15:27:20;5.10;;;2.23;;
18405;SDS011;9329;48.720;9.588;2022-07-06T15:29:47;7.07;;;2.40;;
18405;SDS011;9329;48.720;9.588;2022-07-06T15:32:16;5.60;;;2.05;;